createdAt,value
2018-08-22T00:01:55.464Z,15.80
2018-08-22T00:04:59.872Z,15.70
2018-08-22T00:08:04.164Z,15.70
2018-08-22T00:11:08.455Z,15.70
2018-08-22T00:14:12.741Z,15.70
2018-08-22T00:17:17.056Z,15.70
2018-08-22T00:20:21.319Z,15.60
2018-08-22T00:23:25.571Z,15.60
2018-08-22T00:26:29.849Z,15.60
2018-08-22T00:29:34.238Z,15.50
2018-08-22T00:32:38.478Z,15.50
2018-08-22T00:38:46.921Z,15.50
2018-08-22T00:41:51.151Z,15.50
2018-08-22T00:44:55.451Z,15.40
2018-08-22T00:47:59.715Z,15.40
2018-08-22T00:51:03.983Z,15.50
2018-08-22T00:54:08.319Z,15.50
2018-08-22T00:57:12.562Z,15.50
2018-08-22T01:00:16.862Z,15.50
2018-08-22T01:03:21.158Z,15.50
2018-08-22T01:06:25.755Z,15.50
2018-08-22T01:12:34.087Z,15.50
2018-08-22T01:15:38.361Z,15.50
2018-08-22T01:18:42.676Z,15.50
2018-08-22T01:21:46.998Z,15.50
2018-08-22T01:24:51.325Z,15.50
2018-08-22T01:27:55.561Z,15.50
2018-08-22T01:30:59.847Z,15.50
2018-08-22T01:34:04.106Z,15.50
2018-08-22T01:37:08.326Z,15.50
2018-08-22T01:40:12.534Z,15.50
2018-08-22T01:43:16.910Z,15.60
2018-08-22T01:46:21.246Z,15.50
2018-08-22T01:49:25.481Z,15.60
2018-08-22T01:52:29.727Z,15.50
2018-08-22T01:55:33.978Z,15.50
2018-08-22T02:01:42.451Z,15.50
2018-08-22T02:04:46.705Z,15.50
2018-08-22T02:07:51.067Z,15.50
2018-08-22T02:10:55.412Z,15.50
2018-08-22T02:13:59.699Z,15.50
2018-08-22T02:17:03.975Z,15.60
2018-08-22T02:20:08.283Z,15.60
2018-08-22T02:23:12.563Z,15.60
2018-08-22T02:26:16.879Z,15.60
2018-08-22T02:29:21.206Z,15.60
2018-08-22T02:32:25.524Z,15.70
2018-08-22T02:35:29.843Z,15.70
2018-08-22T02:38:34.301Z,15.70
2018-08-22T02:41:38.621Z,15.60
2018-08-22T02:44:42.900Z,15.60
2018-08-22T02:47:47.137Z,15.60
2018-08-22T02:53:55.567Z,15.50
2018-08-22T02:56:59.871Z,15.40
2018-08-22T03:00:04.216Z,15.30
2018-08-22T03:03:08.479Z,15.30
2018-08-22T03:06:12.847Z,15.30
2018-08-22T03:09:17.143Z,15.30
2018-08-22T03:12:21.476Z,15.20
2018-08-22T03:15:25.796Z,15.20
2018-08-22T03:18:30.112Z,15.20
2018-08-22T03:21:34.600Z,15.30
2018-08-22T03:24:38.859Z,15.30
2018-08-22T03:27:43.180Z,15.40
2018-08-22T03:33:52.167Z,15.40
2018-08-22T03:36:56.463Z,15.40
2018-08-22T03:40:00.767Z,15.40
2018-08-22T03:43:05.103Z,15.30
2018-08-22T03:46:09.422Z,15.30
2018-08-22T03:49:13.749Z,15.30
2018-08-22T03:52:18.067Z,15.30
2018-08-22T03:55:22.386Z,15.20
2018-08-22T03:58:26.701Z,15.20
2018-08-22T04:01:31.060Z,15.20
2018-08-22T04:04:35.314Z,15.10
2018-08-22T04:10:43.781Z,15.20
2018-08-22T04:13:48.138Z,15.20
2018-08-22T04:16:52.423Z,15.10
2018-08-22T04:19:56.687Z,15.10
2018-08-22T04:23:01.884Z,15.10
2018-08-22T04:26:06.184Z,15.10
2018-08-22T04:29:10.440Z,15.10
2018-08-22T04:32:14.694Z,15.10
2018-08-22T04:35:19.075Z,15.00
2018-08-22T04:38:23.412Z,15.00
2018-08-22T04:41:27.698Z,15.00
2018-08-22T04:44:31.979Z,14.90
2018-08-22T04:47:36.261Z,15.00
2018-08-22T04:50:40.580Z,14.90
2018-08-22T04:53:44.888Z,15.00
2018-08-22T04:56:49.268Z,15.00
2018-08-22T05:02:57.621Z,15.00
2018-08-22T05:06:01.866Z,15.00
2018-08-22T05:09:08.408Z,15.00
2018-08-22T05:12:12.776Z,15.10
2018-08-22T05:18:21.724Z,15.20
2018-08-22T05:21:26.006Z,15.20
2018-08-22T05:24:30.322Z,15.20
2018-08-22T05:27:34.668Z,15.30
2018-08-22T05:30:39.093Z,15.40
2018-08-22T05:33:43.472Z,15.40
2018-08-22T05:36:47.714Z,15.40
2018-08-22T05:39:51.944Z,15.50
2018-08-22T05:42:56.278Z,15.60
2018-08-22T05:46:00.608Z,15.70
2018-08-22T05:49:04.984Z,15.70
2018-08-22T05:52:09.224Z,15.80
2018-08-22T05:55:13.542Z,15.90
2018-08-22T05:58:17.864Z,16.00
2018-08-22T06:01:22.206Z,16.20
2018-08-22T06:04:26.476Z,16.30
2018-08-22T06:07:30.849Z,16.30
2018-08-22T06:10:35.150Z,16.50
2018-08-22T06:16:43.589Z,16.70
2018-08-22T06:19:49.186Z,16.90
2018-08-22T06:22:53.564Z,16.80
2018-08-22T06:25:57.883Z,17.00
2018-08-22T06:29:02.207Z,17.20
2018-08-22T06:32:06.509Z,17.20
2018-08-22T06:35:10.833Z,17.30
2018-08-22T06:38:15.169Z,17.40
2018-08-22T06:41:19.497Z,17.50
2018-08-22T06:44:23.849Z,17.60
2018-08-22T06:47:28.039Z,17.90
2018-08-22T06:50:32.343Z,17.90
2018-08-22T06:53:36.679Z,18.00
2018-08-22T06:59:45.007Z,18.30
2018-08-22T07:02:49.367Z,18.40
2018-08-22T07:05:53.713Z,18.60
2018-08-22T07:08:58.165Z,18.70
2018-08-22T07:12:02.436Z,18.90
2018-08-22T07:15:07.697Z,19.10
2018-08-22T07:18:12.032Z,19.20
2018-08-22T07:21:16.404Z,19.30
2018-08-22T07:24:20.770Z,19.50
2018-08-22T07:27:25.177Z,19.60
2018-08-22T07:30:29.497Z,19.70
2018-08-22T07:33:33.824Z,19.90
2018-08-22T07:36:38.246Z,20.00
2018-08-22T07:39:42.531Z,20.10
2018-08-22T07:42:46.883Z,20.30
2018-08-22T07:48:56.124Z,20.40
2018-08-22T07:52:00.550Z,20.50
2018-08-22T07:55:04.872Z,20.70
2018-08-22T07:58:09.188Z,20.70
2018-08-22T08:01:13.491Z,20.90
2018-08-22T08:04:17.829Z,21.00
2018-08-22T08:07:22.162Z,21.10
2018-08-22T08:10:31.521Z,21.20
2018-08-22T08:13:35.814Z,21.20
2018-08-22T08:16:40.290Z,21.20
2018-08-22T08:19:44.578Z,21.30
2018-08-22T08:22:48.861Z,21.40
2018-08-22T08:25:53.203Z,21.50
2018-08-22T08:28:57.617Z,21.70
2018-08-22T08:32:01.928Z,21.90
2018-08-22T08:35:06.228Z,22.00
2018-08-22T08:38:11.707Z,22.10
2018-08-22T08:41:16.017Z,22.10
2018-08-22T08:44:20.332Z,22.20
2018-08-22T08:47:25.121Z,22.30
2018-08-22T08:50:29.503Z,22.30
2018-08-22T08:53:33.924Z,22.30
2018-08-22T08:56:38.168Z,22.40
2018-08-22T08:59:42.532Z,22.50
2018-08-22T09:02:46.884Z,22.70
2018-08-22T09:05:51.170Z,22.80
2018-08-22T09:08:55.528Z,22.90
2018-08-22T09:12:00.997Z,22.90
2018-08-22T09:15:06.358Z,23.00
2018-08-22T09:18:10.960Z,23.00
2018-08-22T09:21:15.261Z,23.20
2018-08-22T09:24:19.535Z,23.40
2018-08-22T09:27:23.854Z,23.50
2018-08-22T09:30:28.190Z,23.60
2018-08-22T09:33:32.516Z,23.80
2018-08-22T09:36:36.838Z,23.80
2018-08-22T09:39:41.192Z,23.80
2018-08-22T09:42:45.485Z,23.90
2018-08-22T09:45:49.826Z,24.00
2018-08-22T09:48:54.192Z,24.20
2018-08-22T09:51:58.500Z,24.20
2018-08-22T09:55:04.236Z,24.30
2018-08-22T09:58:08.610Z,24.40
2018-08-22T10:01:18.061Z,24.50
2018-08-22T10:04:22.329Z,24.60
2018-08-22T10:07:26.742Z,24.80
2018-08-22T10:10:30.985Z,24.80
2018-08-22T10:13:35.326Z,24.90
2018-08-22T10:16:39.686Z,25.10
2018-08-22T10:19:44.161Z,25.10
2018-08-22T10:22:48.414Z,25.10
2018-08-22T10:25:52.717Z,25.10
2018-08-22T10:28:57.122Z,25.20
2018-08-22T10:32:01.563Z,25.30
2018-08-22T10:35:06.583Z,25.30
2018-08-22T10:38:10.872Z,25.50
2018-08-22T10:41:15.155Z,25.70
2018-08-22T10:44:19.544Z,25.70
2018-08-22T10:47:23.952Z,25.70
2018-08-22T10:50:28.354Z,25.70
2018-08-22T10:53:32.695Z,25.70
2018-08-22T10:56:37.015Z,25.80
2018-08-22T10:59:41.444Z,25.90
2018-08-22T11:02:45.864Z,26.00
2018-08-22T11:05:50.198Z,26.20
2018-08-22T11:08:54.502Z,26.30
2018-08-22T11:11:58.803Z,26.30
2018-08-22T11:15:03.156Z,26.30
2018-08-22T11:18:07.470Z,26.30
2018-08-22T11:21:28.789Z,26.40
2018-08-22T11:24:50.182Z,26.30
2018-08-22T11:28:11.531Z,26.30
2018-08-22T11:31:32.972Z,26.30
2018-08-22T11:34:48.197Z,26.30
2018-08-22T11:37:52.552Z,26.30
2018-08-22T11:40:56.821Z,26.50
2018-08-22T11:44:01.194Z,26.60
2018-08-22T11:47:05.623Z,26.70
2018-08-22T11:50:09.893Z,26.70
2018-08-22T11:53:14.372Z,26.80
2018-08-22T11:56:18.761Z,26.60
2018-08-22T11:59:23.082Z,26.70
2018-08-22T12:02:27.357Z,26.80
2018-08-22T12:05:31.701Z,26.80
2018-08-22T12:08:36.013Z,26.80
2018-08-22T12:11:40.744Z,26.90
2018-08-22T12:14:45.070Z,26.90
2018-08-22T12:17:49.405Z,26.90
2018-08-22T12:20:53.815Z,27.00
2018-08-22T12:23:58.165Z,27.10
2018-08-22T12:27:02.518Z,27.20
2018-08-22T12:30:06.795Z,27.30
2018-08-22T12:33:11.189Z,27.50
2018-08-22T12:36:32.120Z,27.60
2018-08-22T12:39:36.421Z,27.70
2018-08-22T12:42:40.728Z,27.70
2018-08-22T12:45:45.048Z,27.70
2018-08-22T12:48:49.397Z,27.60
2018-08-22T12:51:53.679Z,27.50
2018-08-22T12:54:58.006Z,27.40
2018-08-22T12:58:02.335Z,27.40
2018-08-22T13:01:07.071Z,27.40
2018-08-22T13:04:11.756Z,27.30
2018-08-22T13:07:16.029Z,27.50
2018-08-22T13:10:21.190Z,27.30
2018-08-22T13:13:25.432Z,27.20
2018-08-22T13:16:29.759Z,27.20
2018-08-22T13:19:34.101Z,27.30
2018-08-22T13:22:38.390Z,27.30
2018-08-22T13:25:42.718Z,27.20
2018-08-22T13:28:47.248Z,27.30
2018-08-22T13:31:51.595Z,27.20
2018-08-22T13:34:55.892Z,27.40
2018-08-22T13:38:00.204Z,27.60
2018-08-22T13:41:04.535Z,27.60
2018-08-22T13:44:09.015Z,27.60
2018-08-22T13:47:13.501Z,27.40
2018-08-22T13:50:17.810Z,27.50
2018-08-22T13:53:22.147Z,27.50
2018-08-22T13:56:26.466Z,27.40
2018-08-22T13:59:30.770Z,27.40
2018-08-22T14:02:35.100Z,27.40
2018-08-22T14:05:39.564Z,27.50
2018-08-22T14:08:43.843Z,27.50
2018-08-22T14:11:48.144Z,27.70
2018-08-22T14:14:52.490Z,27.70
2018-08-22T14:17:56.789Z,27.80
2018-08-22T14:21:01.107Z,28.00
2018-08-22T14:24:05.415Z,27.90
2018-08-22T14:27:09.768Z,27.90
2018-08-22T14:30:14.187Z,27.90
2018-08-22T14:33:18.733Z,27.70
2018-08-22T14:36:23.041Z,27.50
2018-08-22T14:39:27.505Z,27.50
2018-08-22T14:42:31.680Z,27.70
2018-08-22T14:45:36.003Z,27.70
2018-08-22T14:48:40.285Z,27.50
2018-08-22T14:51:44.584Z,27.40
2018-08-22T14:54:48.940Z,27.20
2018-08-22T14:57:53.203Z,27.20
2018-08-22T15:00:57.569Z,27.30
2018-08-22T15:04:01.873Z,27.60
2018-08-22T15:07:06.392Z,27.60
2018-08-22T15:10:14.534Z,27.50
2018-08-22T15:13:18.824Z,27.30
2018-08-22T15:16:23.132Z,27.40
2018-08-22T15:19:27.464Z,27.40
2018-08-22T15:22:32.069Z,27.40
2018-08-22T15:25:36.687Z,27.60
2018-08-22T15:28:40.952Z,27.80
2018-08-22T15:31:45.254Z,28.10
2018-08-22T15:34:54.839Z,28.50
2018-08-22T15:37:59.219Z,28.80
2018-08-22T15:41:03.611Z,29.00
2018-08-22T15:44:07.874Z,29.20
2018-08-22T15:47:12.768Z,29.10
2018-08-22T15:50:17.038Z,29.30
2018-08-22T15:53:21.363Z,29.40
2018-08-22T15:56:25.748Z,29.50
2018-08-22T15:59:30.071Z,29.30
2018-08-22T16:02:35.041Z,28.90
2018-08-22T16:05:40.492Z,28.80
2018-08-22T16:08:44.918Z,28.70
2018-08-22T16:11:49.189Z,28.60
2018-08-22T16:14:53.433Z,28.50
2018-08-22T16:17:58.097Z,28.20
2018-08-22T16:21:03.119Z,28.10
2018-08-22T16:24:07.673Z,27.80
2018-08-22T16:27:12.003Z,27.50
2018-08-22T16:30:16.292Z,27.30
2018-08-22T16:33:20.601Z,27.00
2018-08-22T16:36:28.987Z,26.80
2018-08-22T16:39:41.728Z,26.60
2018-08-22T16:42:46.180Z,26.30
2018-08-22T16:45:55.380Z,26.20
2018-08-22T16:48:59.751Z,26.20
2018-08-22T16:52:04.207Z,26.30
2018-08-22T16:55:20.434Z,26.50
2018-08-22T16:58:24.829Z,26.60
2018-08-22T17:01:29.589Z,26.70
2018-08-22T17:04:33.946Z,26.80
2018-08-22T17:07:38.311Z,26.70
2018-08-22T17:10:59.260Z,26.60
2018-08-22T17:14:03.613Z,26.30
2018-08-22T17:17:07.880Z,26.10
2018-08-22T17:20:12.237Z,26.10
2018-08-22T17:23:16.564Z,26.00
2018-08-22T17:26:22.991Z,26.00
2018-08-22T17:29:27.341Z,25.80
2018-08-22T17:32:31.636Z,25.60
2018-08-22T17:35:41.162Z,25.30
2018-08-22T17:38:48.253Z,25.10
2018-08-22T17:41:52.678Z,24.90
2018-08-22T17:44:57.002Z,24.70
2018-08-22T17:48:02.456Z,24.60
2018-08-22T17:51:07.022Z,24.40
2018-08-22T17:54:11.413Z,24.20
2018-08-22T17:57:23.425Z,24.10
2018-08-22T18:00:30.123Z,23.80
2018-08-22T18:03:34.532Z,23.80
2018-08-22T18:06:38.846Z,23.60
2018-08-22T18:09:43.148Z,23.40
2018-08-22T18:12:47.448Z,23.40
2018-08-22T18:15:51.766Z,23.20
2018-08-22T18:18:56.158Z,23.10
2018-08-22T18:22:00.423Z,22.80
2018-08-22T18:25:04.977Z,22.80
2018-08-22T18:28:09.269Z,22.70
2018-08-22T18:31:13.580Z,22.40
2018-08-22T18:34:17.935Z,22.30
2018-08-22T18:37:22.223Z,22.30
2018-08-22T18:40:30.604Z,22.10
2018-08-22T18:43:34.988Z,22.10
2018-08-22T18:46:39.408Z,21.90
2018-08-22T18:49:43.860Z,21.80
2018-08-22T18:52:50.634Z,21.70
2018-08-22T18:56:13.891Z,21.60
2018-08-22T18:59:26.706Z,21.50
2018-08-22T19:02:31.278Z,21.40
2018-08-22T19:05:36.822Z,21.30
2018-08-22T19:08:41.289Z,21.20
2018-08-22T19:11:46.535Z,21.10
2018-08-22T19:14:50.961Z,21.00
2018-08-22T19:17:55.372Z,20.90
2018-08-22T19:24:06.723Z,20.90
2018-08-22T19:27:11.076Z,20.80
2018-08-22T19:36:26.605Z,20.70
2018-08-22T19:45:41.482Z,20.50
2018-08-22T19:48:45.826Z,20.40
2018-08-22T19:51:51.670Z,20.40
2018-08-22T19:54:57.646Z,20.40
2018-08-22T19:58:03.609Z,20.30
2018-08-22T20:01:09.173Z,20.20
2018-08-22T20:04:14.470Z,20.20
2018-08-22T20:07:20.861Z,20.10
2018-08-22T20:10:25.265Z,20.00
2018-08-22T20:13:54.165Z,20.00
2018-08-22T20:16:58.483Z,19.90
2018-08-22T20:23:07.078Z,19.80
2018-08-22T20:26:11.430Z,19.70
2018-08-22T20:29:15.760Z,19.80
2018-08-22T20:32:24.737Z,19.70
2018-08-22T20:35:33.343Z,19.70
2018-08-22T20:38:37.715Z,19.60
2018-08-22T20:41:42.861Z,19.50
2018-08-22T20:44:47.701Z,19.50
2018-08-22T20:47:59.190Z,19.50
2018-08-22T20:51:03.500Z,19.50
2018-08-22T20:54:11.904Z,19.50
2018-08-22T20:57:16.203Z,19.60
2018-08-22T21:00:23.893Z,19.60
2018-08-22T21:03:28.254Z,19.60
2018-08-22T21:06:32.553Z,19.60
2018-08-22T21:09:36.933Z,19.50
2018-08-22T21:15:45.455Z,19.60
2018-08-22T21:18:49.873Z,19.60
2018-08-22T21:21:54.301Z,19.60
2018-08-22T21:25:00.162Z,19.60
2018-08-22T21:28:04.441Z,19.60
2018-08-22T21:31:08.788Z,19.60
2018-08-22T21:34:18.353Z,19.50
2018-08-22T21:37:26.076Z,19.40
2018-08-22T21:40:30.599Z,19.30
2018-08-22T21:43:34.987Z,19.30
2018-08-22T21:46:39.282Z,19.20
2018-08-22T21:49:43.647Z,19.20
2018-08-22T21:52:59.327Z,19.10
2018-08-22T21:56:03.663Z,19.00
2018-08-22T21:59:08.485Z,18.90
2018-08-22T22:02:13.112Z,18.80
2018-08-22T22:05:21.587Z,18.80
2018-08-22T22:08:26.032Z,18.80
2018-08-22T22:11:30.284Z,18.70
2018-08-22T22:14:35.805Z,18.60
2018-08-22T22:17:40.205Z,18.60
2018-08-22T22:20:49.168Z,18.60
2018-08-22T22:23:53.401Z,18.40
2018-08-22T22:26:57.885Z,18.40
2018-08-22T22:33:09.277Z,18.30
2018-08-22T22:36:13.675Z,18.30
2018-08-22T22:39:38.004Z,18.30
2018-08-22T22:42:42.258Z,18.30
2018-08-22T22:45:46.600Z,18.30
2018-08-22T22:48:50.897Z,18.30
2018-08-22T22:51:55.217Z,18.30
2018-08-22T22:55:01.727Z,18.30
2018-08-22T22:58:06.141Z,18.30
2018-08-22T23:01:10.405Z,18.30
2018-08-22T23:04:16.227Z,18.20
2018-08-22T23:10:27.594Z,18.20
2018-08-22T23:16:36.864Z,18.20
2018-08-22T23:19:41.188Z,18.10
2018-08-22T23:22:45.432Z,18.10
2018-08-22T23:25:49.877Z,18.10
2018-08-22T23:31:58.315Z,18.10
2018-08-22T23:35:20.840Z,18.20
2018-08-22T23:38:35.813Z,18.20
2018-08-22T23:44:45.259Z,18.30
2018-08-22T23:47:49.593Z,18.30
2018-08-22T23:50:59.540Z,18.30
2018-08-22T23:54:03.939Z,18.30
2018-08-22T23:57:08.258Z,18.30
